sensor_id;sensor_type;location;lat;lon;timestamp;temperature;humidity
5176;DHT22;2607;50.934;6.934;2023-03-01T00:01:13;3.10;93.70
5176;DHT22;2607;50.934;6.934;2023-03-01T00:03:39;3.10;93.80
5176;DHT22;2607;50.934;6.934;2023-03-01T00:06:05;3.10;93.90
5176;DHT22;2607;50.934;6.934;2023-03-01T00:08:31;3.10;94.00
5176;DHT22;2607;50.934;6.934;2023-03-01T00:11:05;3.10;94.10
5176;DHT22;2607;50.934;6.934;2023-03-01T00:13:31;3.10;94.20
5176;DHT22;2607;50.934;6.934;2023-03-01T00:15:57;3.10;94.40
5176;DHT22;2607;50.934;6.934;2023-03-01T00:18:23;3.10;94.30
5176;DHT22;2607;50.934;6.934;2023-03-01T00:20:53;3.10;94.30
5176;DHT22;2607;50.934;6.934;2023-03-01T00:23:20;3.10;94.40
5176;DHT22;2607;50.934;6.934;2023-03-01T00:25:45;3.10;94.40
5176;DHT22;2607;50.934;6.934;2023-03-01T00:28:11;3.10;94.40
5176;DHT22;2607;50.934;6.934;2023-03-01T00:30:37;3.00;94.20
5176;DHT22;2607;50.934;6.934;2023-03-01T00:33:02;3.00;94.50
5176;DHT22;2607;50.934;6.934;2023-03-01T00:35:28;3.00;94.00
5176;DHT22;2607;50.934;6.934;2023-03-01T00:37:53;3.00;93.80
5176;DHT22;2607;50.934;6.934;2023-03-01T00:40:33;3.00;93.70
5176;DHT22;2607;50.934;6.934;2023-03-01T00:42:59;2.90;93.70
5176;DHT22;2607;50.934;6.934;2023-03-01T00:45:25;2.90;93.70
5176;DHT22;2607;50.934;6.934;2023-03-01T00:47:51;2.90;93.90
5176;DHT22;2607;50.934;6.934;2023-03-01T00:50:17;2.80;93.90
5176;DHT22;2607;50.934;6.934;2023-03-01T00:52:43;2.80;93.90
5176;DHT22;2607;50.934;6.934;2023-03-01T00:55:10;2.80;93.90
5176;DHT22;2607;50.934;6.934;2023-03-01T00:57:35;2.70;93.90
5176;DHT22;2607;50.934;6.934;2023-03-01T01:00:01;2.80;93.70
5176;DHT22;2607;50.934;6.934;2023-03-01T01:02:28;2.70;93.90
5176;DHT22;2607;50.934;6.934;2023-03-01T01:04:53;2.70;94.00
5176;DHT22;2607;50.934;6.934;2023-03-01T01:07:19;2.70;94.20
5176;DHT22;2607;50.934;6.934;2023-03-01T01:09:47;2.70;94.20
5176;DHT22;2607;50.934;6.934;2023-03-01T01:12:13;2.70;94.20
5176;DHT22;2607;50.934;6.934;2023-03-01T01:14:38;2.70;94.20
5176;DHT22;2607;50.934;6.934;2023-03-01T01:17:04;2.60;94.10
5176;DHT22;2607;50.934;6.934;2023-03-01T01:19:30;2.60;94.20
5176;DHT22;2607;50.934;6.934;2023-03-01T01:21:55;2.60;94.30
5176;DHT22;2607;50.934;6.934;2023-03-01T01:24:21;2.60;94.30
5176;DHT22;2607;50.934;6.934;2023-03-01T01:26:47;2.60;94.40
5176;DHT22;2607;50.934;6.934;2023-03-01T01:29:13;2.60;94.10
5176;DHT22;2607;50.934;6.934;2023-03-01T01:31:40;2.60;94.10
5176;DHT22;2607;50.934;6.934;2023-03-01T01:34:07;2.60;94.20
5176;DHT22;2607;50.934;6.934;2023-03-01T01:36:34;2.50;94.20
5176;DHT22;2607;50.934;6.934;2023-03-01T01:38:59;2.60;94.20
5176;DHT22;2607;50.934;6.934;2023-03-01T01:41:27;2.60;94.20
5176;DHT22;2607;50.934;6.934;2023-03-01T01:44:21;2.60;94.10
5176;DHT22;2607;50.934;6.934;2023-03-01T01:47:07;2.50;94.20
5176;DHT22;2607;50.934;6.934;2023-03-01T01:49:56;2.50;94.20
5176;DHT22;2607;50.934;6.934;2023-03-01T01:52:29;2.50;94.30
5176;DHT22;2607;50.934;6.934;2023-03-01T01:55:08;2.50;94.20
5176;DHT22;2607;50.934;6.934;2023-03-01T01:57:41;2.50;94.20
5176;DHT22;2607;50.934;6.934;2023-03-01T02:00:15;2.50;94.20
5176;DHT22;2607;50.934;6.934;2023-03-01T02:02:42;2.50;94.30
5176;DHT22;2607;50.934;6.934;2023-03-01T02:05:17;2.50;94.40
5176;DHT22;2607;50.934;6.934;2023-03-01T02:07:44;2.50;94.30
5176;DHT22;2607;50.934;6.934;2023-03-01T02:10:11;2.40;94.30
5176;DHT22;2607;50.934;6.934;2023-03-01T02:12:37;2.40;94.30
5176;DHT22;2607;50.934;6.934;2023-03-01T02:15:04;2.40;94.30
5176;DHT22;2607;50.934;6.934;2023-03-01T02:17:29;2.40;94.40
5176;DHT22;2607;50.934;6.934;2023-03-01T02:22:37;2.40;94.40
5176;DHT22;2607;50.934;6.934;2023-03-01T02:30:21;2.40;94.60
5176;DHT22;2607;50.934;6.934;2023-03-01T02:32:48;2.40;94.70
5176;DHT22;2607;50.934;6.934;2023-03-01T02:35:16;2.40;94.80
5176;DHT22;2607;50.934;6.934;2023-03-01T02:37:43;2.40;94.80
5176;DHT22;2607;50.934;6.934;2023-03-01T02:40:15;2.40;94.90
5176;DHT22;2607;50.934;6.934;2023-03-01T02:42:52;2.40;95.00
5176;DHT22;2607;50.934;6.934;2023-03-01T02:45:19;2.30;95.00
5176;DHT22;2607;50.934;6.934;2023-03-01T02:47:44;2.30;95.00
5176;DHT22;2607;50.934;6.934;2023-03-01T02:53:02;2.30;95.00
5176;DHT22;2607;50.934;6.934;2023-03-01T02:55:29;2.30;95.10
5176;DHT22;2607;50.934;6.934;2023-03-01T02:57:56;2.30;95.20
5176;DHT22;2607;50.934;6.934;2023-03-01T03:00:30;2.30;95.20
5176;DHT22;2607;50.934;6.934;2023-03-01T03:02:58;2.30;95.10
5176;DHT22;2607;50.934;6.934;2023-03-01T03:05:27;2.20;94.90
5176;DHT22;2607;50.934;6.934;2023-03-01T03:07:53;2.20;94.30
5176;DHT22;2607;50.934;6.934;2023-03-01T03:10:31;2.20;94.60
5176;DHT22;2607;50.934;6.934;2023-03-01T03:12:59;2.20;94.80
5176;DHT22;2607;50.934;6.934;2023-03-01T03:15:26;2.10;94.90
5176;DHT22;2607;50.934;6.934;2023-03-01T03:17:53;2.10;94.90
5176;DHT22;2607;50.934;6.934;2023-03-01T03:20:20;2.10;95.10
5176;DHT22;2607;50.934;6.934;2023-03-01T03:22:48;2.00;95.20
5176;DHT22;2607;50.934;6.934;2023-03-01T03:25:14;2.00;95.30
5176;DHT22;2607;50.934;6.934;2023-03-01T03:27:41;2.00;95.30
5176;DHT22;2607;50.934;6.934;2023-03-01T03:30:09;2.00;95.20
5176;DHT22;2607;50.934;6.934;2023-03-01T03:32:40;1.90;95.30
5176;DHT22;2607;50.934;6.934;2023-03-01T03:35:08;1.90;95.50
5176;DHT22;2607;50.934;6.934;2023-03-01T03:37:38;1.90;95.60
5176;DHT22;2607;50.934;6.934;2023-03-01T03:40:22;1.90;95.60
5176;DHT22;2607;50.934;6.934;2023-03-01T03:42:48;1.80;95.80
5176;DHT22;2607;50.934;6.934;2023-03-01T03:45:15;1.80;96.00
5176;DHT22;2607;50.934;6.934;2023-03-01T03:47:41;1.80;96.20
5176;DHT22;2607;50.934;6.934;2023-03-01T03:50:07;1.80;96.20
5176;DHT22;2607;50.934;6.934;2023-03-01T03:52:33;1.80;96.30
5176;DHT22;2607;50.934;6.934;2023-03-01T03:54:58;1.80;96.20
5176;DHT22;2607;50.934;6.934;2023-03-01T03:57:24;1.80;96.30
5176;DHT22;2607;50.934;6.934;2023-03-01T03:59:49;1.80;96.30
5176;DHT22;2607;50.934;6.934;2023-03-01T04:02:15;1.80;96.30
5176;DHT22;2607;50.934;6.934;2023-03-01T04:04:50;1.80;96.50
5176;DHT22;2607;50.934;6.934;2023-03-01T04:07:16;1.70;96.40
5176;DHT22;2607;50.934;6.934;2023-03-01T04:09:43;1.70;96.40
5176;DHT22;2607;50.934;6.934;2023-03-01T04:12:09;1.70;96.50
5176;DHT22;2607;50.934;6.934;2023-03-01T04:14:34;1.70;96.60
5176;DHT22;2607;50.934;6.934;2023-03-01T04:17:00;1.70;96.70
5176;DHT22;2607;50.934;6.934;2023-03-01T04:19:26;1.70;96.70
5176;DHT22;2607;50.934;6.934;2023-03-01T04:21:52;1.70;96.90
5176;DHT22;2607;50.934;6.934;2023-03-01T04:24:18;1.70;96.90
5176;DHT22;2607;50.934;6.934;2023-03-01T04:26:44;1.60;96.80
5176;DHT22;2607;50.934;6.934;2023-03-01T04:29:09;1.60;97.00
5176;DHT22;2607;50.934;6.934;2023-03-01T04:31:35;1.60;96.90
5176;DHT22;2607;50.934;6.934;2023-03-01T04:34:01;1.60;97.00
5176;DHT22;2607;50.934;6.934;2023-03-01T04:36:29;1.50;97.10
5176;DHT22;2607;50.934;6.934;2023-03-01T04:38:55;1.50;97.20
5176;DHT22;2607;50.934;6.934;2023-03-01T04:41:23;1.50;97.40
5176;DHT22;2607;50.934;6.934;2023-03-01T04:43:49;1.50;97.50
5176;DHT22;2607;50.934;6.934;2023-03-01T04:46:18;1.50;97.70
5176;DHT22;2607;50.934;6.934;2023-03-01T04:48:45;1.40;97.80
5176;DHT22;2607;50.934;6.934;2023-03-01T04:51:10;1.40;97.90
5176;DHT22;2607;50.934;6.934;2023-03-01T04:53:39;1.50;98.00
5176;DHT22;2607;50.934;6.934;2023-03-01T04:56:05;1.40;97.90
5176;DHT22;2607;50.934;6.934;2023-03-01T04:58:31;1.40;98.00
5176;DHT22;2607;50.934;6.934;2023-03-01T05:00:56;1.40;98.00
5176;DHT22;2607;50.934;6.934;2023-03-01T05:03:22;1.40;98.00
5176;DHT22;2607;50.934;6.934;2023-03-01T05:05:50;1.40;98.10
5176;DHT22;2607;50.934;6.934;2023-03-01T05:08:16;1.40;98.10
5176;DHT22;2607;50.934;6.934;2023-03-01T05:10:48;1.40;98.20
5176;DHT22;2607;50.934;6.934;2023-03-01T05:13:15;1.40;98.20
5176;DHT22;2607;50.934;6.934;2023-03-01T05:15:48;1.30;98.20
5176;DHT22;2607;50.934;6.934;2023-03-01T05:18:14;1.30;98.10
5176;DHT22;2607;50.934;6.934;2023-03-01T05:20:39;1.30;98.10
5176;DHT22;2607;50.934;6.934;2023-03-01T05:23:05;1.30;98.10
5176;DHT22;2607;50.934;6.934;2023-03-01T05:25:33;1.30;98.00
5176;DHT22;2607;50.934;6.934;2023-03-01T05:28:00;1.30;97.90
5176;DHT22;2607;50.934;6.934;2023-03-01T05:30:32;1.30;97.60
5176;DHT22;2607;50.934;6.934;2023-03-01T05:32:58;1.40;97.40
5176;DHT22;2607;50.934;6.934;2023-03-01T05:35:24;1.30;97.30
5176;DHT22;2607;50.934;6.934;2023-03-01T05:37:50;1.30;97.30
5176;DHT22;2607;50.934;6.934;2023-03-01T05:40:18;1.30;97.30
5176;DHT22;2607;50.934;6.934;2023-03-01T05:42:45;1.30;97.10
5176;DHT22;2607;50.934;6.934;2023-03-01T05:45:12;1.30;97.50
5176;DHT22;2607;50.934;6.934;2023-03-01T05:47:42;1.30;97.20
5176;DHT22;2607;50.934;6.934;2023-03-01T05:50:11;1.30;96.90
5176;DHT22;2607;50.934;6.934;2023-03-01T05:52:36;1.30;96.90
5176;DHT22;2607;50.934;6.934;2023-03-01T05:55:02;1.30;96.90
5176;DHT22;2607;50.934;6.934;2023-03-01T05:57:28;1.30;97.10
5176;DHT22;2607;50.934;6.934;2023-03-01T05:59:54;1.30;97.20
5176;DHT22;2607;50.934;6.934;2023-03-01T06:02:19;1.20;97.20
5176;DHT22;2607;50.934;6.934;2023-03-01T06:04:45;1.30;97.30
5176;DHT22;2607;50.934;6.934;2023-03-01T06:07:10;1.20;97.30
5176;DHT22;2607;50.934;6.934;2023-03-01T06:09:36;1.20;97.10
5176;DHT22;2607;50.934;6.934;2023-03-01T06:12:02;1.20;97.20
5176;DHT22;2607;50.934;6.934;2023-03-01T06:14:27;1.20;97.40
5176;DHT22;2607;50.934;6.934;2023-03-01T06:16:53;1.20;97.40
5176;DHT22;2607;50.934;6.934;2023-03-01T06:19:18;1.20;97.50
5176;DHT22;2607;50.934;6.934;2023-03-01T06:21:44;1.20;97.50
5176;DHT22;2607;50.934;6.934;2023-03-01T06:24:09;1.20;97.60
5176;DHT22;2607;50.934;6.934;2023-03-01T06:26:35;1.20;97.70
5176;DHT22;2607;50.934;6.934;2023-03-01T06:29:00;1.20;97.80
5176;DHT22;2607;50.934;6.934;2023-03-01T06:31:26;1.20;97.70
5176;DHT22;2607;50.934;6.934;2023-03-01T06:33:51;1.20;97.70
5176;DHT22;2607;50.934;6.934;2023-03-01T06:36:17;1.20;97.70
5176;DHT22;2607;50.934;6.934;2023-03-01T06:38:44;1.20;97.70
5176;DHT22;2607;50.934;6.934;2023-03-01T06:41:10;1.20;97.70
5176;DHT22;2607;50.934;6.934;2023-03-01T06:43:35;1.30;97.70
5176;DHT22;2607;50.934;6.934;2023-03-01T06:46:04;1.20;97.60
5176;DHT22;2607;50.934;6.934;2023-03-01T06:48:30;1.20;97.60
5176;DHT22;2607;50.934;6.934;2023-03-01T06:50:58;1.30;97.60
5176;DHT22;2607;50.934;6.934;2023-03-01T06:53:24;1.20;97.40
5176;DHT22;2607;50.934;6.934;2023-03-01T06:55:59;1.30;97.50
5176;DHT22;2607;50.934;6.934;2023-03-01T06:58:28;1.20;97.60
5176;DHT22;2607;50.934;6.934;2023-03-01T07:00:53;1.20;97.60
5176;DHT22;2607;50.934;6.934;2023-03-01T07:03:19;1.30;97.60
5176;DHT22;2607;50.934;6.934;2023-03-01T07:05:44;1.20;97.60
5176;DHT22;2607;50.934;6.934;2023-03-01T07:08:10;1.20;97.90
5176;DHT22;2607;50.934;6.934;2023-03-01T07:10:36;1.20;98.10
5176;DHT22;2607;50.934;6.934;2023-03-01T07:13:02;1.20;98.60
5176;DHT22;2607;50.934;6.934;2023-03-01T07:15:28;1.20;98.90
5176;DHT22;2607;50.934;6.934;2023-03-01T07:17:53;1.20;98.90
5176;DHT22;2607;50.934;6.934;2023-03-01T07:20:19;1.20;99.10
5176;DHT22;2607;50.934;6.934;2023-03-01T07:22:49;1.20;99.10
5176;DHT22;2607;50.934;6.934;2023-03-01T07:25:15;1.20;99.30
5176;DHT22;2607;50.934;6.934;2023-03-01T07:27:41;1.20;99.40
5176;DHT22;2607;50.934;6.934;2023-03-01T07:30:07;1.20;99.40
5176;DHT22;2607;50.934;6.934;2023-03-01T07:32:32;1.20;99.30
5176;DHT22;2607;50.934;6.934;2023-03-01T07:34:58;1.30;99.00
5176;DHT22;2607;50.934;6.934;2023-03-01T07:37:24;1.30;98.80
5176;DHT22;2607;50.934;6.934;2023-03-01T07:39:50;1.40;98.60
5176;DHT22;2607;50.934;6.934;2023-03-01T07:42:15;1.40;98.20
5176;DHT22;2607;50.934;6.934;2023-03-01T07:44:41;1.40;97.80
5176;DHT22;2607;50.934;6.934;2023-03-01T07:47:06;1.50;97.70
5176;DHT22;2607;50.934;6.934;2023-03-01T07:49:32;1.50;97.50
5176;DHT22;2607;50.934;6.934;2023-03-01T07:51:57;1.50;97.30
5176;DHT22;2607;50.934;6.934;2023-03-01T07:54:23;1.60;97.10
5176;DHT22;2607;50.934;6.934;2023-03-01T07:56:50;1.60;97.10
5176;DHT22;2607;50.934;6.934;2023-03-01T07:59:16;1.60;97.00
5176;DHT22;2607;50.934;6.934;2023-03-01T08:01:41;1.60;96.90
5176;DHT22;2607;50.934;6.934;2023-03-01T08:04:07;1.60;96.80
5176;DHT22;2607;50.934;6.934;2023-03-01T08:06:34;1.70;96.80
5176;DHT22;2607;50.934;6.934;2023-03-01T08:09:01;1.70;96.80
5176;DHT22;2607;50.934;6.934;2023-03-01T08:11:26;1.80;96.70
5176;DHT22;2607;50.934;6.934;2023-03-01T08:13:54;1.70;96.50
5176;DHT22;2607;50.934;6.934;2023-03-01T08:16:20;1.80;96.60
5176;DHT22;2607;50.934;6.934;2023-03-01T08:18:45;1.80;96.50
5176;DHT22;2607;50.934;6.934;2023-03-01T08:21:13;1.80;96.40
5176;DHT22;2607;50.934;6.934;2023-03-01T08:23:40;1.90;96.40
5176;DHT22;2607;50.934;6.934;2023-03-01T08:26:16;1.90;96.40
5176;DHT22;2607;50.934;6.934;2023-03-01T08:28:42;2.00;96.30
5176;DHT22;2607;50.934;6.934;2023-03-01T08:31:21;2.00;96.20
5176;DHT22;2607;50.934;6.934;2023-03-01T08:33:49;2.00;96.20
5176;DHT22;2607;50.934;6.934;2023-03-01T08:36:24;2.10;96.20
5176;DHT22;2607;50.934;6.934;2023-03-01T08:38:50;2.10;96.00
5176;DHT22;2607;50.934;6.934;2023-03-01T08:41:16;2.20;96.00
5176;DHT22;2607;50.934;6.934;2023-03-01T08:43:42;2.20;96.00
5176;DHT22;2607;50.934;6.934;2023-03-01T08:46:07;2.30;96.00
5176;DHT22;2607;50.934;6.934;2023-03-01T08:48:33;2.30;95.90
5176;DHT22;2607;50.934;6.934;2023-03-01T08:51:28;2.40;95.80
5176;DHT22;2607;50.934;6.934;2023-03-01T08:53:54;2.40;95.60
5176;DHT22;2607;50.934;6.934;2023-03-01T08:56:20;2.50;95.40
5176;DHT22;2607;50.934;6.934;2023-03-01T08:58:47;2.50;95.30
5176;DHT22;2607;50.934;6.934;2023-03-01T09:01:16;2.60;95.10
5176;DHT22;2607;50.934;6.934;2023-03-01T09:03:42;2.60;95.10
5176;DHT22;2607;50.934;6.934;2023-03-01T09:06:08;2.70;95.10
5176;DHT22;2607;50.934;6.934;2023-03-01T09:08:38;2.80;94.90
5176;DHT22;2607;50.934;6.934;2023-03-01T09:11:09;2.80;94.80
5176;DHT22;2607;50.934;6.934;2023-03-01T09:13:36;2.90;94.50
5176;DHT22;2607;50.934;6.934;2023-03-01T09:16:03;3.00;94.40
5176;DHT22;2607;50.934;6.934;2023-03-01T09:18:29;3.00;94.10
5176;DHT22;2607;50.934;6.934;2023-03-01T09:21:05;3.10;94.10
5176;DHT22;2607;50.934;6.934;2023-03-01T09:23:43;3.10;93.90
5176;DHT22;2607;50.934;6.934;2023-03-01T09:26:10;3.10;93.80
5176;DHT22;2607;50.934;6.934;2023-03-01T09:28:37;3.20;93.80
5176;DHT22;2607;50.934;6.934;2023-03-01T09:31:04;3.30;93.70
5176;DHT22;2607;50.934;6.934;2023-03-01T09:33:30;3.30;93.70
5176;DHT22;2607;50.934;6.934;2023-03-01T09:36:01;3.40;93.70
5176;DHT22;2607;50.934;6.934;2023-03-01T09:38:28;3.40;93.60
5176;DHT22;2607;50.934;6.934;2023-03-01T09:40:54;3.50;93.50
5176;DHT22;2607;50.934;6.934;2023-03-01T09:43:47;3.50;93.30
5176;DHT22;2607;50.934;6.934;2023-03-01T09:46:13;3.60;93.20
5176;DHT22;2607;50.934;6.934;2023-03-01T09:48:48;3.60;92.90
5176;DHT22;2607;50.934;6.934;2023-03-01T09:51:19;3.70;92.80
5176;DHT22;2607;50.934;6.934;2023-03-01T09:53:47;3.70;92.70
5176;DHT22;2607;50.934;6.934;2023-03-01T09:56:22;3.70;92.60
5176;DHT22;2607;50.934;6.934;2023-03-01T10:01:35;3.80;92.30
5176;DHT22;2607;50.934;6.934;2023-03-01T10:09:34;4.00;91.70
5176;DHT22;2607;50.934;6.934;2023-03-01T10:12:01;4.10;91.60
5176;DHT22;2607;50.934;6.934;2023-03-01T10:14:38;4.10;91.50
5176;DHT22;2607;50.934;6.934;2023-03-01T10:17:07;4.20;91.30
5176;DHT22;2607;50.934;6.934;2023-03-01T10:19:40;4.30;91.10
5176;DHT22;2607;50.934;6.934;2023-03-01T10:22:19;4.30;91.00
5176;DHT22;2607;50.934;6.934;2023-03-01T10:24:47;4.40;91.00
5176;DHT22;2607;50.934;6.934;2023-03-01T10:27:21;4.50;90.70
5176;DHT22;2607;50.934;6.934;2023-03-01T10:32:29;4.60;90.50
5176;DHT22;2607;50.934;6.934;2023-03-01T10:34:54;4.60;90.20
5176;DHT22;2607;50.934;6.934;2023-03-01T10:37:21;4.70;90.10
5176;DHT22;2607;50.934;6.934;2023-03-01T10:42:26;4.80;88.70
5176;DHT22;2607;50.934;6.934;2023-03-01T10:44:53;4.90;88.60
5176;DHT22;2607;50.934;6.934;2023-03-01T10:50:04;5.10;87.40
5176;DHT22;2607;50.934;6.934;2023-03-01T10:52:34;5.20;87.50
5176;DHT22;2607;50.934;6.934;2023-03-01T10:55:03;5.20;87.10
5176;DHT22;2607;50.934;6.934;2023-03-01T10:57:36;5.30;86.40
5176;DHT22;2607;50.934;6.934;2023-03-01T11:00:25;5.40;86.70
5176;DHT22;2607;50.934;6.934;2023-03-01T11:03:12;5.40;86.00
5176;DHT22;2607;50.934;6.934;2023-03-01T11:06:01;5.50;85.60
5176;DHT22;2607;50.934;6.934;2023-03-01T11:08:33;5.60;85.40
5176;DHT22;2607;50.934;6.934;2023-03-01T11:11:22;5.70;84.20
5176;DHT22;2607;50.934;6.934;2023-03-01T11:16:35;5.80;83.40
5176;DHT22;2607;50.934;6.934;2023-03-01T11:19:18;5.90;82.00
5176;DHT22;2607;50.934;6.934;2023-03-01T11:21:47;5.90;81.40
5176;DHT22;2607;50.934;6.934;2023-03-01T11:24:14;6.00;81.70
5176;DHT22;2607;50.934;6.934;2023-03-01T11:26:44;6.00;81.80
5176;DHT22;2607;50.934;6.934;2023-03-01T11:29:35;6.10;81.80
5176;DHT22;2607;50.934;6.934;2023-03-01T11:32:06;6.10;80.00
5176;DHT22;2607;50.934;6.934;2023-03-01T11:37:09;6.10;80.30
5176;DHT22;2607;50.934;6.934;2023-03-01T11:39:46;6.20;80.50
5176;DHT22;2607;50.934;6.934;2023-03-01T11:42:18;6.30;79.50
5176;DHT22;2607;50.934;6.934;2023-03-01T11:44:48;6.40;78.80
5176;DHT22;2607;50.934;6.934;2023-03-01T11:50:19;6.40;78.10
5176;DHT22;2607;50.934;6.934;2023-03-01T11:53:07;6.50;78.30
5176;DHT22;2607;50.934;6.934;2023-03-01T12:11:55;6.90;75.40
5176;DHT22;2607;50.934;6.934;2023-03-01T12:19:58;7.00;74.80
5176;DHT22;2607;50.934;6.934;2023-03-01T12:25:34;7.10;75.00
5176;DHT22;2607;50.934;6.934;2023-03-01T12:42:10;7.30;74.60
5176;DHT22;2607;50.934;6.934;2023-03-01T12:45:00;7.40;73.70
5176;DHT22;2607;50.934;6.934;2023-03-01T12:48:02;7.30;74.30
5176;DHT22;2607;50.934;6.934;2023-03-01T12:50:42;7.30;74.90
5176;DHT22;2607;50.934;6.934;2023-03-01T12:53:26;7.30;74.90
5176;DHT22;2607;50.934;6.934;2023-03-01T12:55:54;7.40;73.70
5176;DHT22;2607;50.934;6.934;2023-03-01T12:58:30;7.40;73.20
5176;DHT22;2607;50.934;6.934;2023-03-01T13:07:03;7.40;74.30
5176;DHT22;2607;50.934;6.934;2023-03-01T13:15:26;7.50;72.60
5176;DHT22;2607;50.934;6.934;2023-03-01T13:17:54;7.50;73.00
5176;DHT22;2607;50.934;6.934;2023-03-01T13:20:32;7.50;73.20
5176;DHT22;2607;50.934;6.934;2023-03-01T13:23:07;7.50;73.20
5176;DHT22;2607;50.934;6.934;2023-03-01T13:25:34;7.60;73.20
5176;DHT22;2607;50.934;6.934;2023-03-01T13:31:02;7.60;72.90
5176;DHT22;2607;50.934;6.934;2023-03-01T13:35:55;7.60;73.10
5176;DHT22;2607;50.934;6.934;2023-03-01T13:38:38;7.60;73.10
5176;DHT22;2607;50.934;6.934;2023-03-01T13:41:05;7.70;72.80
5176;DHT22;2607;50.934;6.934;2023-03-01T13:43:39;7.70;72.70
5176;DHT22;2607;50.934;6.934;2023-03-01T13:46:26;7.60;72.80
5176;DHT22;2607;50.934;6.934;2023-03-01T13:48:56;7.60;72.80
5176;DHT22;2607;50.934;6.934;2023-03-01T13:51:27;7.70;71.80
5176;DHT22;2607;50.934;6.934;2023-03-01T13:53:54;7.80;71.30
5176;DHT22;2607;50.934;6.934;2023-03-01T13:56:36;7.80;71.00
5176;DHT22;2607;50.934;6.934;2023-03-01T13:59:06;7.80;71.10
5176;DHT22;2607;50.934;6.934;2023-03-01T14:01:34;7.90;70.30
5176;DHT22;2607;50.934;6.934;2023-03-01T14:04:01;7.90;69.60
5176;DHT22;2607;50.934;6.934;2023-03-01T14:06:32;8.00;69.00
5176;DHT22;2607;50.934;6.934;2023-03-01T14:12:21;7.90;69.60
5176;DHT22;2607;50.934;6.934;2023-03-01T14:17:36;8.00;69.10
5176;DHT22;2607;50.934;6.934;2023-03-01T14:20:20;8.00;68.80
5176;DHT22;2607;50.934;6.934;2023-03-01T14:22:47;8.00;69.60
5176;DHT22;2607;50.934;6.934;2023-03-01T14:30:44;8.00;68.60
5176;DHT22;2607;50.934;6.934;2023-03-01T14:33:24;8.10;67.30
5176;DHT22;2607;50.934;6.934;2023-03-01T14:36:13;8.10;67.50
5176;DHT22;2607;50.934;6.934;2023-03-01T14:38:41;8.10;67.60
5176;DHT22;2607;50.934;6.934;2023-03-01T14:41:16;8.10;67.60
5176;DHT22;2607;50.934;6.934;2023-03-01T14:43:50;8.20;68.50
5176;DHT22;2607;50.934;6.934;2023-03-01T14:46:29;8.20;68.50
5176;DHT22;2607;50.934;6.934;2023-03-01T14:49:02;8.20;69.90
5176;DHT22;2607;50.934;6.934;2023-03-01T14:51:28;8.20;70.30
5176;DHT22;2607;50.934;6.934;2023-03-01T14:53:54;8.20;70.70
5176;DHT22;2607;50.934;6.934;2023-03-01T14:56:20;8.30;71.50
5176;DHT22;2607;50.934;6.934;2023-03-01T14:58:46;8.30;71.50
5176;DHT22;2607;50.934;6.934;2023-03-01T15:01:17;8.40;72.20
5176;DHT22;2607;50.934;6.934;2023-03-01T15:03:47;8.40;72.20
5176;DHT22;2607;50.934;6.934;2023-03-01T15:06:22;8.50;72.50
5176;DHT22;2607;50.934;6.934;2023-03-01T15:08:50;8.50;72.90
5176;DHT22;2607;50.934;6.934;2023-03-01T15:13:50;8.30;73.90
5176;DHT22;2607;50.934;6.934;2023-03-01T15:16:24;8.30;74.30
5176;DHT22;2607;50.934;6.934;2023-03-01T15:18:54;8.20;74.80
5176;DHT22;2607;50.934;6.934;2023-03-01T15:24:20;8.10;75.70
5176;DHT22;2607;50.934;6.934;2023-03-01T15:26:53;8.10;76.50
5176;DHT22;2607;50.934;6.934;2023-03-01T15:29:23;8.10;77.70
5176;DHT22;2607;50.934;6.934;2023-03-01T15:32:00;8.20;80.00
5176;DHT22;2607;50.934;6.934;2023-03-01T15:34:31;8.20;77.60
5176;DHT22;2607;50.934;6.934;2023-03-01T15:36:59;8.20;79.30
5176;DHT22;2607;50.934;6.934;2023-03-01T15:39:43;8.20;81.40
5176;DHT22;2607;50.934;6.934;2023-03-01T15:47:54;8.30;81.30
5176;DHT22;2607;50.934;6.934;2023-03-01T15:50:28;8.50;86.70
5176;DHT22;2607;50.934;6.934;2023-03-01T15:52:56;8.70;84.20
5176;DHT22;2607;50.934;6.934;2023-03-01T15:55:25;8.70;86.30
5176;DHT22;2607;50.934;6.934;2023-03-01T15:58:24;8.60;81.80
5176;DHT22;2607;50.934;6.934;2023-03-01T16:00:51;8.50;79.20
5176;DHT22;2607;50.934;6.934;2023-03-01T16:03:22;8.80;81.00
5176;DHT22;2607;50.934;6.934;2023-03-01T16:05:49;8.70;79.90
5176;DHT22;2607;50.934;6.934;2023-03-01T16:08:16;8.70;78.90
5176;DHT22;2607;50.934;6.934;2023-03-01T16:10:42;8.60;75.40
5176;DHT22;2607;50.934;6.934;2023-03-01T16:13:14;8.60;76.70
5176;DHT22;2607;50.934;6.934;2023-03-01T16:15:45;8.70;85.10
5176;DHT22;2607;50.934;6.934;2023-03-01T16:18:11;8.60;80.60
5176;DHT22;2607;50.934;6.934;2023-03-01T16:20:37;8.50;77.30
5176;DHT22;2607;50.934;6.934;2023-03-01T16:23:05;8.50;74.20
5176;DHT22;2607;50.934;6.934;2023-03-01T16:25:32;8.40;74.20
5176;DHT22;2607;50.934;6.934;2023-03-01T16:27:58;8.40;73.80
5176;DHT22;2607;50.934;6.934;2023-03-01T16:30:26;8.30;74.10
5176;DHT22;2607;50.934;6.934;2023-03-01T16:32:52;8.20;73.80
5176;DHT22;2607;50.934;6.934;2023-03-01T16:35:20;8.10;74.20
5176;DHT22;2607;50.934;6.934;2023-03-01T16:37:46;8.00;74.60
5176;DHT22;2607;50.934;6.934;2023-03-01T16:40:22;7.90;74.60
5176;DHT22;2607;50.934;6.934;2023-03-01T16:42:49;8.00;74.70
5176;DHT22;2607;50.934;6.934;2023-03-01T16:45:15;8.00;74.60
5176;DHT22;2607;50.934;6.934;2023-03-01T16:47:41;8.00;74.90
5176;DHT22;2607;50.934;6.934;2023-03-01T16:50:07;7.90;74.30
5176;DHT22;2607;50.934;6.934;2023-03-01T16:52:34;7.90;74.30
5176;DHT22;2607;50.934;6.934;2023-03-01T16:54:59;7.80;74.40
5176;DHT22;2607;50.934;6.934;2023-03-01T16:57:25;7.70;75.00
5176;DHT22;2607;50.934;6.934;2023-03-01T16:59:51;7.60;74.90
5176;DHT22;2607;50.934;6.934;2023-03-01T17:02:19;7.50;75.20
5176;DHT22;2607;50.934;6.934;2023-03-01T17:04:51;7.50;75.50
5176;DHT22;2607;50.934;6.934;2023-03-01T17:07:17;7.40;75.50
5176;DHT22;2607;50.934;6.934;2023-03-01T17:09:42;7.40;75.50
5176;DHT22;2607;50.934;6.934;2023-03-01T17:12:08;7.30;75.80
5176;DHT22;2607;50.934;6.934;2023-03-01T17:14:34;7.20;76.10
5176;DHT22;2607;50.934;6.934;2023-03-01T17:17:00;7.10;76.40
5176;DHT22;2607;50.934;6.934;2023-03-01T17:19:26;7.10;76.60
5176;DHT22;2607;50.934;6.934;2023-03-01T17:21:52;7.10;76.40
5176;DHT22;2607;50.934;6.934;2023-03-01T17:24:18;7.10;76.50
5176;DHT22;2607;50.934;6.934;2023-03-01T17:26:43;7.10;76.50
5176;DHT22;2607;50.934;6.934;2023-03-01T17:29:09;7.00;76.70
5176;DHT22;2607;50.934;6.934;2023-03-01T17:31:35;7.00;76.60
5176;DHT22;2607;50.934;6.934;2023-03-01T17:34:01;7.00;76.90
5176;DHT22;2607;50.934;6.934;2023-03-01T17:36:27;6.90;76.70
5176;DHT22;2607;50.934;6.934;2023-03-01T17:38:52;6.90;76.10
5176;DHT22;2607;50.934;6.934;2023-03-01T17:41:18;7.00;76.70
5176;DHT22;2607;50.934;6.934;2023-03-01T17:43:45;6.90;76.40
5176;DHT22;2607;50.934;6.934;2023-03-01T17:46:11;6.90;76.40
5176;DHT22;2607;50.934;6.934;2023-03-01T17:48:36;6.90;76.60
5176;DHT22;2607;50.934;6.934;2023-03-01T17:51:11;6.80;76.60
5176;DHT22;2607;50.934;6.934;2023-03-01T17:53:37;6.80;77.20
5176;DHT22;2607;50.934;6.934;2023-03-01T17:56:05;6.70;77.30
5176;DHT22;2607;50.934;6.934;2023-03-01T17:58:31;6.60;77.40
5176;DHT22;2607;50.934;6.934;2023-03-01T18:01:15;6.60;77.70
5176;DHT22;2607;50.934;6.934;2023-03-01T18:03:42;6.70;77.40
5176;DHT22;2607;50.934;6.934;2023-03-01T18:06:17;6.70;77.10
5176;DHT22;2607;50.934;6.934;2023-03-01T18:08:44;6.60;77.50
5176;DHT22;2607;50.934;6.934;2023-03-01T18:11:10;6.60;77.50
5176;DHT22;2607;50.934;6.934;2023-03-01T18:13:37;6.70;77.40
5176;DHT22;2607;50.934;6.934;2023-03-01T18:16:08;6.60;77.60
5176;DHT22;2607;50.934;6.934;2023-03-01T18:18:35;6.50;77.80
5176;DHT22;2607;50.934;6.934;2023-03-01T18:21:01;6.50;78.20
5176;DHT22;2607;50.934;6.934;2023-03-01T18:23:27;6.40;78.20